createdAt,value
2017-07-31T00:00:00.563Z,81.2
2017-07-31T00:01:00.163Z,81.2
2017-07-31T00:01:59.248Z,81.8
2017-07-31T00:02:59.214Z,81.4
2017-07-31T00:03:58.415Z,81.7
2017-07-31T00:04:57.619Z,81.8
2017-07-31T00:05:57.201Z,81.9
2017-07-31T00:06:56.783Z,82
2017-07-31T00:07:55.991Z,82.5
2017-07-31T00:08:55.184Z,82.2
2017-07-31T00:09:54.889Z,82.1
2017-07-31T00:10:53.977Z,82.1
2017-07-31T00:11:24.485Z,82.1
2017-07-31T00:11:55.022Z,82.3
2017-07-31T00:12:52.987Z,82.3
2017-07-31T00:13:52.193Z,82.2
2017-07-31T00:14:51.919Z,84.1
2017-07-31T00:15:51.020Z,83.7
2017-07-31T00:16:50.609Z,83.5
2017-07-31T00:17:49.829Z,84.1
2017-07-31T00:18:49.532Z,84.1
2017-07-31T00:19:48.739Z,83.7
2017-07-31T00:20:48.379Z,84.4
2017-07-31T00:21:47.575Z,84.1
2017-07-31T00:22:17.980Z,84.1
2017-07-31T00:22:48.757Z,84.1
2017-07-31T00:23:19.268Z,84.1
2017-07-31T00:24:45.931Z,84.3
2017-07-31T00:25:45.154Z,84.6
2017-07-31T00:26:44.739Z,84.9
2017-07-31T00:27:43.946Z,86.5
2017-07-31T00:28:43.543Z,85.9
2017-07-31T00:29:42.738Z,85.5
2017-07-31T00:30:41.828Z,85.2
2017-07-31T00:31:41.432Z,84.7
2017-07-31T00:32:40.909Z,84.8
2017-07-31T00:34:39.663Z,85
2017-07-31T00:35:39.258Z,84.6
2017-07-31T00:36:38.467Z,84.5
2017-07-31T00:37:37.679Z,84.3
2017-07-31T00:38:37.380Z,84.3
2017-07-31T00:39:36.472Z,84.5
2017-07-31T00:40:35.936Z,85.8
2017-07-31T00:41:35.523Z,85.1
2017-07-31T00:42:34.732Z,85.4
2017-07-31T00:43:34.316Z,84.8
2017-07-31T00:44:33.526Z,84.9
2017-07-31T00:45:33.119Z,85.5
2017-07-31T00:46:32.322Z,85.5
2017-07-31T00:47:31.522Z,84.9
2017-07-31T00:48:31.238Z,84.6
2017-07-31T00:49:30.435Z,85.3
2017-07-31T00:50:29.633Z,85
2017-07-31T00:51:29.215Z,85
2017-07-31T00:52:28.801Z,85.6
2017-07-31T00:53:27.880Z,85.3
2017-07-31T00:54:27.586Z,85.7
2017-07-31T00:55:26.798Z,84.9
2017-07-31T00:56:25.895Z,84.7
2017-07-31T00:57:25.593Z,84.3
2017-07-31T00:58:24.784Z,84.2
2017-07-31T00:59:24.516Z,84.4
2017-07-31T01:00:23.601Z,84
2017-07-31T01:01:22.802Z,83.9
2017-07-31T01:02:22.390Z,83.9
2017-07-31T01:03:21.595Z,84.2
2017-07-31T01:04:21.298Z,84.5
2017-07-31T01:05:20.488Z,84.3
2017-07-31T01:06:20.193Z,84
2017-07-31T01:07:19.276Z,83.9
2017-07-31T01:08:18.476Z,83.2
2017-07-31T01:10:17.568Z,83.3
2017-07-31T01:11:16.764Z,82.4
2017-07-31T01:12:16.464Z,82.3
2017-07-31T01:13:15.558Z,81.9
2017-07-31T01:14:15.255Z,80.7
2017-07-31T01:15:14.460Z,80.7
2017-07-31T01:16:13.672Z,81
2017-07-31T01:17:13.375Z,80.5
2017-07-31T01:18:12.469Z,80.2
2017-07-31T01:19:12.066Z,80.2
2017-07-31T01:19:42.455Z,80.2
2017-07-31T01:20:12.958Z,80
2017-07-31T01:20:43.346Z,80
2017-07-31T01:22:10.243Z,80
2017-07-31T01:23:09.444Z,80.2
2017-07-31T01:24:08.640Z,79.9
2017-07-31T01:25:08.350Z,80
2017-07-31T01:26:07.824Z,80.1
2017-07-31T01:27:07.029Z,79.9
2017-07-31T01:28:06.629Z,79.9
2017-07-31T01:29:05.732Z,80.7
2017-07-31T01:30:05.081Z,80.7
2017-07-31T01:30:35.372Z,80.7
2017-07-31T01:31:05.773Z,80.4
2017-07-31T01:31:36.287Z,80.4
2017-07-31T01:32:06.687Z,80.2
2017-07-31T01:32:37.200Z,80.2
2017-07-31T01:34:02.447Z,80.6
2017-07-31T01:35:02.044Z,80.7
2017-07-31T01:36:01.638Z,80.8
2017-07-31T01:37:00.710Z,81
2017-07-31T01:38:00.300Z,80.9
2017-07-31T01:38:59.266Z,81.6
2017-07-31T01:39:59.253Z,81.3
2017-07-31T01:40:58.462Z,81.4
2017-07-31T01:41:57.748Z,81.2
2017-07-31T01:42:57.336Z,81.1
2017-07-31T01:43:56.527Z,81.1
2017-07-31T01:44:56.111Z,81.1
2017-07-31T01:45:55.303Z,81.2
2017-07-31T01:46:54.509Z,81.1
2017-07-31T01:47:54.215Z,81.3
2017-07-31T01:48:53.412Z,81.4
2017-07-31T01:49:23.825Z,81.4
2017-07-31T01:49:54.360Z,81.3
2017-07-31T01:50:24.645Z,81.3
2017-07-31T01:51:51.534Z,81.5
2017-07-31T01:52:51.241Z,81.4
2017-07-31T01:53:50.446Z,81.5
2017-07-31T01:54:49.546Z,81.4
2017-07-31T01:55:49.251Z,81.5
2017-07-31T01:56:48.456Z,81.3
2017-07-31T01:57:48.042Z,81.6
2017-07-31T01:58:47.250Z,82.4
2017-07-31T01:59:46.838Z,82
2017-07-31T02:00:46.038Z,82.2
2017-07-31T02:01:45.246Z,82
2017-07-31T02:02:44.821Z,82.2
2017-07-31T02:03:44.010Z,82.3
2017-07-31T02:05:42.876Z,82.6
2017-07-31T02:06:42.226Z,82.7
2017-07-31T02:07:41.692Z,83.1
2017-07-31T02:08:41.284Z,83.4
2017-07-31T02:09:40.483Z,83.4
2017-07-31T02:10:40.065Z,83.1
2017-07-31T02:11:39.271Z,82.3
2017-07-31T02:12:09.787Z,82.3
2017-07-31T02:12:40.300Z,82.2
2017-07-31T02:13:10.820Z,82.2
2017-07-31T02:13:41.344Z,82.6
2017-07-31T02:14:11.728Z,82.6
2017-07-31T02:15:36.601Z,82.6
2017-07-31T02:17:35.576Z,82.8
2017-07-31T02:18:35.042Z,83
2017-07-31T02:19:34.273Z,83.1
2017-07-31T02:20:33.858Z,82.6
2017-07-31T02:21:33.055Z,82.6
2017-07-31T02:22:32.251Z,83
2017-07-31T02:23:31.957Z,82.7
2017-07-31T02:24:31.039Z,82.4
2017-07-31T02:25:30.760Z,82.4
2017-07-31T02:26:29.978Z,82.2
2017-07-31T02:27:29.174Z,82.5
2017-07-31T02:28:28.759Z,82.5
2017-07-31T02:29:28.348Z,82.8
2017-07-31T02:30:27.338Z,82.9
2017-07-31T02:31:27.033Z,82.7
2017-07-31T02:32:26.127Z,82.8
2017-07-31T02:33:25.717Z,82.6
2017-07-31T02:34:24.803Z,82.6
2017-07-31T02:35:24.385Z,82.7
2017-07-31T02:36:23.972Z,83
2017-07-31T02:37:23.191Z,83.4
2017-07-31T02:38:22.391Z,83.4
2017-07-31T02:39:22.077Z,83.6
2017-07-31T02:40:21.267Z,84.1
2017-07-31T02:41:20.464Z,84
2017-07-31T02:42:20.165Z,84.6
2017-07-31T02:43:19.232Z,85
2017-07-31T02:45:17.968Z,85.4
2017-07-31T02:46:17.662Z,85.3
2017-07-31T02:47:16.857Z,86
2017-07-31T02:48:16.431Z,86.3
2017-07-31T02:49:15.507Z,86.1
2017-07-31T02:50:15.199Z,86.1
2017-07-31T02:51:14.277Z,86.7
2017-07-31T02:52:13.853Z,86.8
2017-07-31T02:53:12.944Z,87.5
2017-07-31T02:54:12.641Z,87.5
2017-07-31T02:55:12.101Z,87.8
2017-07-31T02:56:11.298Z,88.2
2017-07-31T02:57:10.874Z,88.2
2017-07-31T02:58:09.938Z,88.2
2017-07-31T02:59:09.638Z,88.3
2017-07-31T02:59:40.025Z,88.3
2017-07-31T03:00:10.535Z,88.5
2017-07-31T03:00:40.918Z,88.5
2017-07-31T03:01:11.426Z,88.5
2017-07-31T03:01:41.800Z,88.5
2017-07-31T03:02:12.326Z,88.4
2017-07-31T03:03:06.874Z,88.2
2017-07-31T03:04:06.469Z,88.4
2017-07-31T03:05:06.051Z,88.6
2017-07-31T03:06:05.348Z,88.7
2017-07-31T03:08:03.802Z,88.8
2017-07-31T03:09:03.380Z,88.9
2017-07-31T03:10:02.574Z,89.3
2017-07-31T03:11:02.298Z,89.4
2017-07-31T03:12:01.366Z,89.6
2017-07-31T03:13:00.936Z,89.4
2017-07-31T03:14:00.140Z,89.7
2017-07-31T03:14:59.729Z,89.5
2017-07-31T03:15:58.797Z,89.4
2017-07-31T03:16:58.492Z,89.8
2017-07-31T03:17:57.694Z,90
2017-07-31T03:18:57.389Z,89.6
2017-07-31T03:19:56.592Z,89.6
2017-07-31T03:20:55.793Z,89.7
2017-07-31T03:21:26.319Z,89.7
2017-07-31T03:21:56.832Z,89.8
2017-07-31T03:22:27.347Z,89.8
2017-07-31T03:23:53.974Z,89.9
2017-07-31T03:24:53.312Z,89.8
2017-07-31T03:25:52.651Z,89.8
2017-07-31T03:26:52.253Z,89.8
2017-07-31T03:27:51.455Z,89.8
2017-07-31T03:28:51.043Z,89.9
2017-07-31T03:29:50.244Z,90
2017-07-31T03:30:49.451Z,90.2
2017-07-31T03:31:49.165Z,90.1
2017-07-31T03:32:48.367Z,90.4
2017-07-31T03:33:47.568Z,90.5
2017-07-31T03:34:47.269Z,90.5
2017-07-31T03:35:46.735Z,90.7
2017-07-31T03:36:45.807Z,90.6
2017-07-31T03:37:45.521Z,90.9
2017-07-31T03:38:44.723Z,91.1
2017-07-31T03:39:44.302Z,91
2017-07-31T03:40:14.579Z,91
2017-07-31T03:40:44.965Z,91.5
2017-07-31T03:41:15.462Z,91.5
2017-07-31T03:41:45.975Z,91.3
2017-07-31T03:42:16.367Z,91.3
2017-07-31T03:43:41.757Z,91.4
2017-07-31T03:44:40.715Z,91.4
2017-07-31T03:45:40.329Z,91.5
2017-07-31T03:46:39.409Z,91.6
2017-07-31T03:47:38.751Z,91.8
2017-07-31T03:48:38.211Z,92
2017-07-31T03:49:37.787Z,92
2017-07-31T03:50:37.357Z,92.2
2017-07-31T03:51:36.448Z,92.3
2017-07-31T03:52:06.826Z,92.3
2017-07-31T03:52:37.224Z,92.3
2017-07-31T03:53:07.489Z,92.3
2017-07-31T03:53:37.872Z,92.3
2017-07-31T03:54:08.378Z,92.3
2017-07-31T03:54:38.769Z,92.3
2017-07-31T03:55:09.150Z,92.3
2017-07-31T03:56:33.511Z,92.6
2017-07-31T03:57:32.706Z,92.9
2017-07-31T03:58:31.906Z,92.9
2017-07-31T03:59:31.597Z,92.8
2017-07-31T04:00:30.687Z,92.9
2017-07-31T04:01:30.380Z,93
2017-07-31T04:02:29.566Z,93.2
2017-07-31T04:03:28.769Z,93.5
2017-07-31T04:04:28.467Z,93.1
2017-07-31T04:05:27.665Z,92.9
2017-07-31T04:06:26.854Z,93
2017-07-31T04:07:26.546Z,92.9
2017-07-31T04:08:25.622Z,93.1
2017-07-31T04:09:25.089Z,93
2017-07-31T04:10:24.785Z,93
2017-07-31T04:11:23.968Z,93.2
2017-07-31T04:12:23.168Z,93.7
2017-07-31T04:13:22.760Z,93.7
2017-07-31T04:14:21.958Z,93.6
2017-07-31T04:15:21.155Z,93.6
2017-07-31T04:16:20.852Z,93.8
2017-07-31T04:17:19.956Z,94
2017-07-31T04:18:19.536Z,94.1
2017-07-31T04:19:18.733Z,94
2017-07-31T04:20:18.307Z,94.1
2017-07-31T04:21:17.383Z,94.3
2017-07-31T04:22:17.088Z,94.2
2017-07-31T04:23:16.167Z,94.2
2017-07-31T04:24:15.855Z,94.1
2017-07-31T04:25:15.059Z,94.2
2017-07-31T04:26:14.539Z,94.3
2017-07-31T04:27:13.522Z,94.2
2017-07-31T04:28:13.104Z,94.3
2017-07-31T04:29:12.280Z,94.4
2017-07-31T04:30:11.862Z,94.5
2017-07-31T04:31:11.445Z,94.2
2017-07-31T04:32:10.639Z,94.3
2017-07-31T04:33:09.836Z,94.2
2017-07-31T04:34:09.539Z,94.3
2017-07-31T04:34:40.027Z,94.3
2017-07-31T04:35:10.310Z,94.4
2017-07-31T04:35:40.813Z,94.4
2017-07-31T04:37:07.579Z,94.4
2017-07-31T04:38:06.659Z,94.4
2017-07-31T04:40:05.635Z,94.6
2017-07-31T04:41:04.837Z,94.7
2017-07-31T04:42:04.033Z,94.7
2017-07-31T04:43:03.613Z,94.7
2017-07-31T04:44:02.687Z,94.7
2017-07-31T04:45:02.385Z,94.9
2017-07-31T04:46:01.845Z,94.7
2017-07-31T04:47:00.808Z,94.9
2017-07-31T04:48:00.382Z,95
2017-07-31T04:48:59.576Z,95
2017-07-31T04:50:58.546Z,94.9
2017-07-31T04:51:57.736Z,95
2017-07-31T04:52:57.309Z,95.2
2017-07-31T04:53:56.516Z,95
2017-07-31T04:54:55.711Z,95
2017-07-31T04:55:55.297Z,95
2017-07-31T04:56:54.481Z,94.9
2017-07-31T04:57:53.702Z,95.1
2017-07-31T04:58:53.157Z,94.9
2017-07-31T04:59:52.735Z,95.2
2017-07-31T05:01:51.082Z,95.2
2017-07-31T05:02:50.649Z,95.2
2017-07-31T05:03:50.135Z,95.2
2017-07-31T05:04:49.580Z,95.1
2017-07-31T05:05:48.653Z,95.4
2017-07-31T05:06:48.343Z,95.4
2017-07-31T05:07:47.546Z,95.2
2017-07-31T05:08:46.739Z,95.4
2017-07-31T05:09:46.442Z,95.5
2017-07-31T05:11:44.900Z,95.3
2017-07-31T05:12:44.106Z,95.2
2017-07-31T05:13:43.685Z,95.5
2017-07-31T05:15:42.276Z,95.4
2017-07-31T05:16:41.466Z,95.3
2017-07-31T05:17:41.089Z,95.2
2017-07-31T05:18:40.291Z,95.4
2017-07-31T05:19:39.860Z,95.5
2017-07-31T05:20:39.329Z,95.3
2017-07-31T05:21:38.526Z,95.3
2017-07-31T05:22:37.985Z,95.2
2017-07-31T05:23:37.168Z,95.1
2017-07-31T05:24:36.750Z,94.9
2017-07-31T05:25:35.949Z,94.9
2017-07-31T05:26:35.148Z,95.1
2017-07-31T05:27:34.357Z,94.7
2017-07-31T05:28:34.072Z,94.5
2017-07-31T05:29:33.150Z,94.5
2017-07-31T05:30:32.849Z,94.5
2017-07-31T05:31:31.950Z,94.4
2017-07-31T05:32:31.148Z,94.5
2017-07-31T05:33:30.848Z,94.6
2017-07-31T05:34:30.040Z,94.8
2017-07-31T05:35:29.243Z,94.9
2017-07-31T05:36:28.818Z,94.9
2017-07-31T05:37:28.011Z,94.9
2017-07-31T05:38:27.718Z,94.8
2017-07-31T05:39:26.799Z,94.6
2017-07-31T05:40:26.001Z,94.4
2017-07-31T05:40:56.514Z,94.4
2017-07-31T05:41:26.775Z,94.7
2017-07-31T05:41:57.293Z,94.7
2017-07-31T05:42:27.781Z,94.7
2017-07-31T05:42:58.181Z,94.7
2017-07-31T05:43:28.565Z,94.7
2017-07-31T05:43:58.959Z,94.7
2017-07-31T05:44:29.477Z,94.5
2017-07-31T05:44:59.866Z,94.5
2017-07-31T05:46:22.119Z,94.5
2017-07-31T05:47:21.820Z,94.4
2017-07-31T05:48:20.884Z,94.6
2017-07-31T05:49:20.595Z,94.5
2017-07-31T05:50:19.782Z,94.4
2017-07-31T05:51:18.852Z,94.3
2017-07-31T05:52:18.462Z,94.4
2017-07-31T05:53:17.911Z,94.4
2017-07-31T05:54:17.116Z,94.5
2017-07-31T05:54:47.623Z,94.5
2017-07-31T05:55:18.042Z,93.7
2017-07-31T05:56:16.108Z,93.8
2017-07-31T05:57:15.190Z,94
2017-07-31T05:58:14.376Z,93.5
2017-07-31T05:59:13.845Z,93.8
2017-07-31T06:00:13.322Z,93.1
2017-07-31T06:01:12.521Z,92.9
2017-07-31T06:02:12.095Z,92.7
2017-07-31T06:03:11.172Z,92.8
2017-07-31T06:04:10.746Z,92.5
2017-07-31T06:05:10.329Z,92.9
2017-07-31T06:06:09.515Z,92.8
2017-07-31T06:07:08.597Z,92.3
2017-07-31T06:08:08.180Z,92
2017-07-31T06:09:07.649Z,92.3
2017-07-31T06:10:06.841Z,92.2
2017-07-31T06:11:06.424Z,92
2017-07-31T06:12:05.628Z,92
2017-07-31T06:12:36.008Z,92
2017-07-31T06:13:06.406Z,92.4
2017-07-31T06:13:36.682Z,92.4
2017-07-31T06:14:07.190Z,92.3
2017-07-31T06:14:37.444Z,92.3
2017-07-31T06:16:02.712Z,92.6
2017-07-31T06:17:02.195Z,92.3
2017-07-31T06:21:59.469Z,91.5
2017-07-31T06:22:58.537Z,91.4
2017-07-31T06:23:58.000Z,91.4
2017-07-31T06:24:57.206Z,91.1
2017-07-31T06:25:56.917Z,90.9
2017-07-31T06:26:55.882Z,90.7
2017-07-31T06:27:55.476Z,89.6
2017-07-31T06:28:54.565Z,89.6
2017-07-31T06:29:54.257Z,89.7
2017-07-31T06:30:53.332Z,90
2017-07-31T06:31:52.914Z,89.7
2017-07-31T06:32:52.497Z,90.2
2017-07-31T06:33:51.689Z,90
2017-07-31T06:35:50.275Z,90.4
2017-07-31T06:36:49.861Z,90.1
2017-07-31T06:37:49.222Z,90.4
2017-07-31T06:39:47.692Z,90.6
2017-07-31T06:40:47.162Z,90.6
2017-07-31T06:41:46.864Z,90.7
2017-07-31T06:42:46.044Z,90.4
2017-07-31T06:43:45.238Z,90.7
2017-07-31T06:44:44.812Z,90.1
2017-07-31T06:45:44.271Z,89.9
2017-07-31T06:46:43.728Z,90
2017-07-31T06:47:42.690Z,90.1
2017-07-31T06:48:42.270Z,90.1
2017-07-31T06:49:41.852Z,89.9
2017-07-31T06:50:12.244Z,89.9
2017-07-31T06:50:42.762Z,89.6
2017-07-31T06:51:13.265Z,89.6
2017-07-31T06:51:43.650Z,89.1
2017-07-31T06:52:39.708Z,89
2017-07-31T06:53:38.901Z,88.9
2017-07-31T06:54:38.362Z,89
2017-07-31T06:56:37.338Z,88.6
2017-07-31T06:57:36.804Z,88.6
2017-07-31T06:58:35.879Z,89
2017-07-31T06:59:35.584Z,89
2017-07-31T07:00:34.780Z,89.1
2017-07-31T07:01:33.989Z,88.9
2017-07-31T07:02:33.687Z,88.5
2017-07-31T07:03:32.780Z,88.4
2017-07-31T07:04:32.360Z,88.9
2017-07-31T07:05:31.451Z,88.8
2017-07-31T07:06:31.038Z,88.7
2017-07-31T07:07:30.505Z,88.7
2017-07-31T07:08:30.084Z,88.3
2017-07-31T07:09:29.177Z,88
2017-07-31T07:10:28.388Z,88.2
2017-07-31T07:11:28.105Z,87.5
2017-07-31T07:12:27.308Z,86.8
2017-07-31T07:13:27.005Z,85.7
2017-07-31T07:14:26.204Z,85.6
2017-07-31T07:15:25.786Z,85.2
2017-07-31T07:16:24.742Z,85.2
2017-07-31T07:17:24.440Z,85.7
2017-07-31T07:18:23.647Z,84.7
2017-07-31T07:19:23.328Z,85
2017-07-31T07:20:22.519Z,85.5
2017-07-31T07:20:53.017Z,85.5
2017-07-31T07:21:23.402Z,85.4
2017-07-31T07:21:53.789Z,85.4
2017-07-31T07:22:24.297Z,86
2017-07-31T07:22:54.812Z,86
2017-07-31T07:24:20.178Z,85.1
2017-07-31T07:25:19.368Z,85.2
2017-07-31T07:26:19.060Z,84.6
2017-07-31T07:27:18.156Z,84.7
2017-07-31T07:28:17.853Z,84.9
2017-07-31T07:29:17.055Z,85.1
2017-07-31T07:30:16.254Z,85.2
2017-07-31T07:31:15.949Z,85.5
2017-07-31T07:32:15.151Z,86
2017-07-31T07:33:14.862Z,85.5
2017-07-31T07:34:13.933Z,84.9
2017-07-31T07:35:13.636Z,84.3
2017-07-31T07:36:12.735Z,82.2
2017-07-31T07:37:12.437Z,77.2
2017-07-31T07:38:11.645Z,75.2
2017-07-31T07:39:11.117Z,73.9
2017-07-31T07:40:10.328Z,73.2
2017-07-31T07:41:09.903Z,73.3
2017-07-31T07:42:09.108Z,73.3
2017-07-31T07:43:08.828Z,72.3
2017-07-31T07:44:08.026Z,71.9
2017-07-31T07:45:07.734Z,72.1
2017-07-31T07:46:06.928Z,71.1
2017-07-31T07:47:06.119Z,71.7
2017-07-31T07:48:05.827Z,70.2
2017-07-31T07:49:05.024Z,69.7
2017-07-31T07:50:04.720Z,69.8
2017-07-31T07:51:04.180Z,68.7
2017-07-31T07:52:03.641Z,69.2
2017-07-31T07:52:34.033Z,69.2
2017-07-31T07:53:04.529Z,69.5
2017-07-31T07:54:02.199Z,69.3
2017-07-31T07:55:01.785Z,69.5
2017-07-31T07:56:00.864Z,69.5
2017-07-31T07:57:00.462Z,70.1
2017-07-31T07:57:59.812Z,69.8
2017-07-31T07:58:59.505Z,69.4
2017-07-31T07:59:58.697Z,70.1
2017-07-31T08:00:58.405Z,70.4
2017-07-31T08:01:57.592Z,71.2
2017-07-31T08:02:56.805Z,70.3
2017-07-31T08:03:56.392Z,70.6
2017-07-31T08:04:56.096Z,70.3
2017-07-31T08:05:55.294Z,69.6
2017-07-31T08:06:54.890Z,69.8
2017-07-31T08:07:54.084Z,69.7
2017-07-31T08:08:53.540Z,68.5
2017-07-31T08:09:53.125Z,69
2017-07-31T08:10:52.199Z,69.1
2017-07-31T08:11:51.934Z,69
2017-07-31T08:12:51.303Z,69.5
2017-07-31T08:13:21.805Z,69.5
2017-07-31T08:13:52.074Z,69.4
2017-07-31T08:14:22.357Z,69.4
2017-07-31T08:14:52.630Z,69.4
2017-07-31T08:15:23.141Z,69.4
2017-07-31T08:16:48.904Z,68.8
2017-07-31T08:17:48.504Z,68.6
2017-07-31T08:18:47.694Z,69.3
2017-07-31T08:19:47.394Z,69.3
2017-07-31T08:20:46.576Z,68.9
2017-07-31T08:22:45.532Z,68.5
2017-07-31T08:23:45.106Z,68.7
2017-07-31T08:24:44.175Z,68.9
2017-07-31T08:25:43.863Z,68.9
2017-07-31T08:26:43.432Z,68.4
2017-07-31T08:27:42.617Z,68.8
2017-07-31T08:28:42.081Z,68.6
2017-07-31T08:29:41.661Z,68.1
2017-07-31T08:30:41.259Z,68.1
2017-07-31T08:31:40.722Z,67.9
2017-07-31T08:32:39.929Z,67.3
2017-07-31T08:33:39.504Z,68.3
2017-07-31T08:34:39.094Z,66.9
2017-07-31T08:35:38.289Z,67
2017-07-31T08:36:37.986Z,66.2
2017-07-31T08:37:37.065Z,66.3
2017-07-31T08:38:36.421Z,66.3
2017-07-31T08:39:36.126Z,67.1
2017-07-31T08:40:35.818Z,66.3
2017-07-31T08:41:35.012Z,65.2
2017-07-31T08:42:34.716Z,64.6
2017-07-31T08:43:33.926Z,63
2017-07-31T08:44:33.629Z,63.2
2017-07-31T08:45:32.711Z,62.6
2017-07-31T08:46:03.224Z,62.6
2017-07-31T08:46:33.725Z,63.1
2017-07-31T08:47:31.791Z,62.9
2017-07-31T08:48:31.142Z,63.7
2017-07-31T08:49:30.719Z,63.7
2017-07-31T08:50:30.176Z,63
2017-07-31T08:51:29.771Z,63.7
2017-07-31T08:52:29.115Z,63.4
2017-07-31T08:53:28.695Z,62.6
2017-07-31T08:54:28.148Z,62.6
2017-07-31T08:55:27.228Z,62.8
2017-07-31T08:56:27.085Z,63
2017-07-31T08:57:26.286Z,62.8
2017-07-31T08:58:25.737Z,63.3
2017-07-31T08:59:25.308Z,63.4
2017-07-31T09:00:25.026Z,62.9
2017-07-31T09:01:24.118Z,63.4
2017-07-31T09:01:54.509Z,63.4
2017-07-31T09:03:23.402Z,64.5
2017-07-31T09:04:22.355Z,64.8
2017-07-31T09:05:22.204Z,64.1
2017-07-31T09:06:21.777Z,64.1
2017-07-31T09:08:20.264Z,63.3
2017-07-31T09:09:19.843Z,63.4
2017-07-31T09:10:19.544Z,62.8
2017-07-31T09:11:19.135Z,62.9
2017-07-31T09:12:18.328Z,63.4
2017-07-31T09:13:17.907Z,63
2017-07-31T09:14:17.488Z,62.9
2017-07-31T09:15:16.693Z,63
2017-07-31T09:16:16.271Z,63
2017-07-31T09:17:15.469Z,63.2
2017-07-31T09:18:15.159Z,62.6
2017-07-31T09:19:14.731Z,62.8
2017-07-31T09:20:13.935Z,62.8
2017-07-31T09:21:13.642Z,60.9
2017-07-31T09:22:13.102Z,61.1
2017-07-31T09:23:12.308Z,61.1
2017-07-31T09:24:12.000Z,60.9
2017-07-31T09:24:42.257Z,60.9
2017-07-31T09:25:12.918Z,61.4
2017-07-31T09:26:10.987Z,60.8
2017-07-31T09:27:10.553Z,60.9
2017-07-31T09:28:09.748Z,61.4
2017-07-31T09:29:09.447Z,60.9
2017-07-31T09:30:08.910Z,61.1
2017-07-31T09:31:08.115Z,61.4
2017-07-31T09:32:07.694Z,61.5
2017-07-31T09:33:07.277Z,61.7
2017-07-31T09:34:06.350Z,62
2017-07-31T09:35:06.047Z,62.6
2017-07-31T09:36:05.669Z,62
2017-07-31T09:37:05.243Z,62.1
2017-07-31T09:38:04.460Z,61.3
2017-07-31T09:39:04.159Z,61.3
2017-07-31T09:40:03.236Z,61
2017-07-31T09:41:02.815Z,60.5
2017-07-31T09:42:02.519Z,61
2017-07-31T09:43:01.996Z,60.7
2017-07-31T09:44:01.572Z,60.1
2017-07-31T09:45:00.653Z,59.8
2017-07-31T09:46:00.240Z,60.1
2017-07-31T09:46:59.952Z,60.6
2017-07-31T09:47:59.418Z,61.3
2017-07-31T09:48:59.115Z,60.8
2017-07-31T09:49:58.314Z,60.2
2017-07-31T09:50:57.887Z,60.3
2017-07-31T09:51:57.464Z,61
2017-07-31T09:52:56.661Z,60.6
2017-07-31T09:53:27.055Z,60.6
2017-07-31T09:53:57.565Z,60
2017-07-31T09:54:27.965Z,60
2017-07-31T09:54:58.368Z,60.4
2017-07-31T09:55:28.761Z,60.4
2017-07-31T09:55:59.267Z,61
2017-07-31T09:56:29.767Z,61
2017-07-31T09:57:54.519Z,59.7
2017-07-31T09:58:53.709Z,60.4
2017-07-31T09:59:53.291Z,59.6
2017-07-31T10:00:52.982Z,58.9
2017-07-31T10:01:52.052Z,59.7
2017-07-31T10:02:51.624Z,60.7
2017-07-31T10:03:51.322Z,60.6
2017-07-31T10:04:50.509Z,60.3
2017-07-31T10:05:50.213Z,59.4
2017-07-31T10:06:49.794Z,59.1
2017-07-31T10:07:20.334Z,59.1
2017-07-31T10:07:50.846Z,59.7
2017-07-31T10:08:48.674Z,59.5
2017-07-31T10:09:48.148Z,59.6
2017-07-31T10:10:47.597Z,59.1
2017-07-31T10:11:47.303Z,58.9
2017-07-31T10:12:46.502Z,58.7
2017-07-31T10:13:45.844Z,59.7
2017-07-31T10:14:45.422Z,60.7
2017-07-31T10:15:45.014Z,59.2
2017-07-31T10:16:44.605Z,59.9
2017-07-31T10:17:44.170Z,60.5
2017-07-31T10:18:43.757Z,60.5
2017-07-31T10:19:42.946Z,59.3
2017-07-31T10:20:42.650Z,59.2
2017-07-31T10:21:42.245Z,59.5
2017-07-31T10:22:41.449Z,59.7
2017-07-31T10:23:41.150Z,61.1
2017-07-31T10:24:40.733Z,61.9
2017-07-31T10:25:40.082Z,59.3
2017-07-31T10:26:39.792Z,59
2017-07-31T10:27:10.296Z,59
2017-07-31T10:28:38.940Z,58.6
2017-07-31T10:29:38.142Z,59.3
2017-07-31T10:30:37.493Z,57.7
2017-07-31T10:32:36.962Z,57.9
2017-07-31T10:33:36.034Z,58.3
2017-07-31T10:34:35.725Z,58.1
2017-07-31T10:35:35.432Z,57.7
2017-07-31T10:36:34.626Z,58
2017-07-31T10:37:34.223Z,58.3
2017-07-31T10:38:33.939Z,57.7
2017-07-31T10:39:33.528Z,58.7
2017-07-31T10:41:32.134Z,58.7
2017-07-31T10:42:31.849Z,58.3
2017-07-31T10:43:02.368Z,58.3
2017-07-31T10:43:32.875Z,58.7
2017-07-31T10:44:30.838Z,58.4
2017-07-31T10:45:30.542Z,57.5
2017-07-31T10:46:29.744Z,57.9
2017-07-31T10:47:29.319Z,57.6
2017-07-31T10:48:28.906Z,58.6
2017-07-31T10:49:28.133Z,57.8
2017-07-31T10:50:27.703Z,56.1
2017-07-31T10:55:25.346Z,57.4
2017-07-31T10:56:24.803Z,56.3
2017-07-31T10:57:24.762Z,56.3
2017-07-31T10:58:24.109Z,56.8
2017-07-31T10:59:23.692Z,57.2
2017-07-31T11:00:22.893Z,57.5
2017-07-31T11:01:22.867Z,58.1
2017-07-31T11:02:22.066Z,56.9
2017-07-31T11:03:21.649Z,57.1
2017-07-31T11:04:21.361Z,56.5
2017-07-31T11:04:51.862Z,56.5
2017-07-31T11:06:20.125Z,56.8
2017-07-31T11:07:19.718Z,56.9
2017-07-31T11:08:19.426Z,57.5
2017-07-31T11:09:18.633Z,56.5
2017-07-31T11:10:18.335Z,56.5
2017-07-31T11:11:18.031Z,57.4
2017-07-31T11:12:17.229Z,57.3
2017-07-31T11:13:16.809Z,57.2
2017-07-31T11:14:16.429Z,57
2017-07-31T11:15:16.139Z,57.3
2017-07-31T11:16:15.336Z,57.5
2017-07-31T11:17:14.931Z,58
2017-07-31T11:18:14.630Z,56.7
2017-07-31T11:19:13.970Z,57.4
2017-07-31T11:20:13.568Z,57.5
2017-07-31T11:21:13.258Z,56
2017-07-31T11:22:12.974Z,56
2017-07-31T11:23:12.171Z,56.8
2017-07-31T11:24:11.865Z,56.4
2017-07-31T11:25:11.328Z,56.8
2017-07-31T11:26:10.912Z,56.6
2017-07-31T11:27:10.385Z,57.6
2017-07-31T11:28:10.094Z,56.4
2017-07-31T11:29:09.674Z,56.5
2017-07-31T11:30:09.244Z,56.3
2017-07-31T11:31:08.433Z,56.8
2017-07-31T11:32:07.890Z,57.5
2017-07-31T11:33:07.469Z,56.6
2017-07-31T11:34:07.162Z,56.3
2017-07-31T11:34:37.427Z,56.3
2017-07-31T11:35:07.813Z,55.9
2017-07-31T11:35:38.207Z,55.9
2017-07-31T11:36:08.714Z,55.6
2017-07-31T11:36:39.098Z,55.6
2017-07-31T11:37:09.483Z,56.3
2017-07-31T11:37:39.872Z,56.3
2017-07-31T11:38:10.146Z,56.1
2017-07-31T11:38:40.402Z,56.1
2017-07-31T11:40:04.256Z,57.6
2017-07-31T11:41:03.844Z,58.6
2017-07-31T11:42:03.532Z,56.3
2017-07-31T11:43:03.115Z,56.4
2017-07-31T11:44:02.809Z,56.3
2017-07-31T11:45:02.012Z,56.4
2017-07-31T11:46:01.601Z,55.7
2017-07-31T11:47:01.303Z,56.7
2017-07-31T11:48:00.813Z,56
2017-07-31T11:48:31.236Z,56
2017-07-31T11:49:01.754Z,55.9
2017-07-31T11:49:32.261Z,55.9
2017-07-31T11:50:59.643Z,55.2
2017-07-31T11:51:58.847Z,55.1
2017-07-31T11:52:58.550Z,55.1
2017-07-31T11:53:58.252Z,54.4
2017-07-31T11:54:57.328Z,54
2017-07-31T11:55:57.028Z,55.8
2017-07-31T11:56:56.999Z,55.5
2017-07-31T11:57:56.332Z,55.4
2017-07-31T11:58:56.037Z,55.2
2017-07-31T12:00:55.007Z,56.5
2017-07-31T12:01:54.572Z,54.7
2017-07-31T12:02:54.277Z,54.3
2017-07-31T12:03:53.874Z,54.1
2017-07-31T12:04:53.078Z,53.8
2017-07-31T12:05:52.662Z,54.2
2017-07-31T12:06:52.357Z,54.3
2017-07-31T12:07:51.824Z,55.4
2017-07-31T12:08:22.358Z,55.4
2017-07-31T12:09:51.139Z,55.1
2017-07-31T12:10:50.716Z,54.7
2017-07-31T12:11:49.916Z,54.4
2017-07-31T12:12:49.876Z,55.9
2017-07-31T12:13:49.071Z,53.7
2017-07-31T12:14:48.768Z,54.6
2017-07-31T12:15:48.220Z,54.2
2017-07-31T12:16:47.924Z,54.8
2017-07-31T12:17:47.650Z,55.9
2017-07-31T12:18:47.342Z,54.4
2017-07-31T12:19:46.923Z,53.3
2017-07-31T12:20:46.001Z,54
2017-07-31T12:21:45.718Z,54.2
2017-07-31T12:22:45.189Z,54.7
2017-07-31T12:23:44.771Z,54.6
2017-07-31T12:24:44.363Z,56.4
2017-07-31T12:25:43.945Z,55.7
2017-07-31T12:26:43.678Z,55.2
2017-07-31T12:27:43.145Z,56.4
2017-07-31T12:28:42.607Z,54.9
2017-07-31T12:29:42.300Z,54.2
2017-07-31T12:30:42.063Z,53.4
2017-07-31T12:31:12.571Z,53.4
2017-07-31T12:32:41.236Z,52.5
2017-07-31T12:33:40.934Z,52.6
2017-07-31T12:34:40.132Z,54.6
2017-07-31T12:35:40.214Z,54.8
2017-07-31T12:36:39.784Z,52.6
2017-07-31T12:37:39.366Z,52.3
2017-07-31T12:38:38.574Z,52
2017-07-31T12:39:38.270Z,54
2017-07-31T12:40:37.973Z,53.8
2017-07-31T12:41:37.435Z,55.4
2017-07-31T12:42:37.137Z,55
2017-07-31T12:43:36.855Z,54.4
2017-07-31T12:44:36.046Z,56.1
2017-07-31T12:45:35.520Z,58.8
2017-07-31T12:46:35.495Z,58.8
2017-07-31T12:47:06.006Z,58.8
2017-07-31T12:47:36.520Z,55.1
2017-07-31T12:48:06.918Z,55.1
2017-07-31T12:48:37.323Z,54.2
2017-07-31T12:49:34.005Z,54.3
2017-07-31T12:50:33.966Z,54
2017-07-31T12:51:33.433Z,52.9
2017-07-31T12:52:33.028Z,54
2017-07-31T12:53:32.728Z,54.2
2017-07-31T12:54:32.067Z,55
2017-07-31T12:55:31.546Z,54
2017-07-31T12:56:31.516Z,52.6
2017-07-31T12:57:30.724Z,52.9